Dutton, Virginia
Current Conditions -  °F | °C
As of 6:15 AM on Friday 24 Oct 2014 (Local Time) from KW75 Reporting Station
Clear Clear  
Wind Chill: 53°   Ceiling: Unl
Heat Index: 53°   Visibility: 10mi
Dew Point: 44°   Wind: 7mph
Humidity: 72%   Direction: 300°WNW
Pressure: 29.94"   Gusts: NA
Location:  37.5°N, 76.46°W
Report Text: KW75 241015Z AUTO 30006KT 10SM CLR 12/07 A2994 RMK AO1 T01160068
Loading
Personal Weather Stations






























Interactive Weather Map
Tropical Storm Tracking
New forecast layout! Learn more

10-Day Weather Forecast

Advertisements
Track Severe Weather on mobile